Time;durP1;ratioP1;P1;durP2;ratioP2;P2;SDS_P1;SDS_P2;PMS_P1;PMS_P2;Temp;Humidity;BMP_temperature;BMP_pressure;BME280_temperature;BME280_humidity;BME280_pressure;Samples;Min_cycle;Max_cycle;Signal;HPM_P1;HPM_P2
2021/10/09 00:00:37;;;;;;;36.03;25.10;;;10.30;96.30;;;;;;5057321;28;20049;-68
2021/10/09 00:03:04;;;;;;;35.40;26.90;;;10.30;96.50;;;;;;5054260;28;20114;-68
2021/10/09 00:05:31;;;;;;;35.60;26.20;;;10.30;96.50;;;;;;5042122;28;20132;-68
2021/10/09 00:07:59;;;;;;;29.98;22.58;;;10.30;96.50;;;;;;5080386;28;20056;-68
2021/10/09 00:10:30;;;;;;;32.67;22.83;;;10.30;96.50;;;;;;5063688;28;20071;-68
2021/10/09 00:12:57;;;;;;;30.55;22.52;;;10.20;96.70;;;;;;5055837;28;20081;-67
2021/10/09 00:15:24;;;;;;;30.05;21.17;;;10.30;97.00;;;;;;5052016;28;20215;-67
2021/10/09 00:17:51;;;;;;;33.15;24.17;;;10.40;96.80;;;;;;5057567;28;20141;-68
2021/10/09 00:20:18;;;;;;;32.92;22.35;;;10.40;97.10;;;;;;5052319;28;20062;-68
2021/10/09 00:22:45;;;;;;;32.85;24.70;;;10.50;97.00;;;;;;5056044;28;20037;-67
2021/10/09 00:25:12;;;;;;;35.90;24.10;;;10.60;97.20;;;;;;5043433;28;20097;-68
2021/10/09 00:27:39;;;;;;;57.20;33.50;;;10.60;97.20;;;;;;5037627;28;20040;-68
2021/10/09 00:30:07;;;;;;;69.20;35.83;;;10.70;97.50;;;;;;5038066;28;20072;-67
2021/10/09 00:32:34;;;;;;;64.38;34.65;;;10.80;98.30;;;;;;5055854;28;20040;-67
2021/10/09 00:35:01;;;;;;;59.92;34.70;;;10.80;98.20;;;;;;5057155;28;20045;-68
2021/10/09 00:37:28;;;;;;;74.57;37.10;;;10.90;98.00;;;;;;5051911;28;20090;-67
2021/10/09 00:39:55;;;;;;;89.55;38.80;;;10.90;98.40;;;;;;5057319;28;20139;-67
2021/10/09 00:42:22;;;;;;;67.43;36.58;;;11.00;98.40;;;;;;5045929;28;20048;-67
2021/10/09 00:44:49;;;;;;;77.47;36.60;;;11.00;98.20;;;;;;5024383;28;20048;-68
2021/10/09 00:47:16;;;;;;;104.97;41.40;;;11.10;98.30;;;;;;5058199;28;20487;-67
2021/10/09 00:49:43;;;;;;;151.13;40.83;;;11.00;98.40;;;;;;5052807;28;20045;-67
2021/10/09 00:52:11;;;;;;;213.57;47.42;;;11.10;98.80;;;;;;5036243;28;20052;-67
2021/10/09 00:54:41;;;;;;;185.40;40.97;;;11.10;98.90;;;;;;5039295;28;20467;-68
2021/10/09 00:57:09;;;;;;;143.80;38.10;;;11.20;99.10;;;;;;5070273;28;20055;-66
2021/10/09 00:59:36;;;;;;;302.95;48.22;;;11.20;99.20;;;;;;5051543;28;20041;-67
2021/10/09 01:02:03;;;;;;;251.38;41.17;;;11.20;99.20;;;;;;5057801;28;20120;-67
2021/10/09 01:04:31;;;;;;;292.92;46.47;;;11.30;99.50;;;;;;5050969;28;20051;-67
2021/10/09 01:06:59;;;;;;;188.32;34.42;;;11.30;99.60;;;;;;5051358;28;20476;-67
2021/10/09 01:09:26;;;;;;;209.35;38.35;;;11.30;99.60;;;;;;5060984;28;20183;-67
2021/10/09 01:11:53;;;;;;;226.27;38.40;;;11.30;99.60;;;;;;5056111;28;20055;-67
2021/10/09 01:14:20;;;;;;;153.18;30.35;;;11.30;99.40;;;;;;5044711;28;20074;-67
2021/10/09 01:16:48;;;;;;;122.28;27.70;;;11.30;99.50;;;;;;5055012;28;20040;-67
2021/10/09 01:19:15;;;;;;;119.45;27.85;;;11.30;99.30;;;;;;5056263;28;20415;-67
2021/10/09 01:21:43;;;;;;;169.38;34.05;;;11.20;99.20;;;;;;5061522;28;20556;-67
2021/10/09 01:24:10;;;;;;;198.48;33.70;;;11.20;99.30;;;;;;5069562;28;20110;-67
2021/10/09 01:26:37;;;;;;;108.07;26.80;;;11.20;99.40;;;;;;5057191;28;20405;-67
2021/10/09 01:29:06;;;;;;;83.22;23.33;;;11.20;99.50;;;;;;5051936;28;20113;-67
2021/10/09 01:31:33;;;;;;;153.70;32.05;;;11.20;99.40;;;;;;5052612;28;20131;-67
2021/10/09 01:34:00;;;;;;;128.10;29.35;;;11.20;99.20;;;;;;5049177;28;20044;-66
2021/10/09 01:36:35;;;;;;;223.10;37.15;;;11.20;99.60;;;;;;5073756;28;20518;-66
2021/10/09 01:39:03;;;;;;;148.77;30.80;;;11.30;99.50;;;;;;5042962;28;20127;-67
2021/10/09 01:41:30;;;;;;;160.73;31.92;;;11.20;99.40;;;;;;5068623;28;20044;-68
2021/10/09 01:43:57;;;;;;;80.32;24.00;;;11.20;99.40;;;;;;5076567;28;20053;-66
2021/10/09 01:46:24;;;;;;;145.40;27.00;;;11.20;99.40;;;;;;5056714;28;20044;-67
2021/10/09 01:48:51;;;;;;;90.63;25.92;;;11.20;99.10;;;;;;5073598;28;20189;-67
2021/10/09 01:51:18;;;;;;;116.55;24.92;;;11.20;99.40;;;;;;5058158;28;20071;-66
2021/10/09 01:53:45;;;;;;;197.75;28.65;;;11.10;99.30;;;;;;5080967;28;20040;-66
2021/10/09 01:56:12;;;;;;;112.40;22.67;;;11.10;99.20;;;;;;5080460;28;20062;-66
2021/10/09 01:58:39;;;;;;;106.03;20.50;;;11.10;99.30;;;;;;5055118;28;20037;-67
2021/10/09 02:01:06;;;;;;;56.97;16.85;;;11.10;99.30;;;;;;5065958;28;20132;-66
2021/10/09 02:03:34;;;;;;;82.47;20.20;;;11.10;99.60;;;;;;5079465;28;20040;-66
2021/10/09 02:06:01;;;;;;;99.25;17.92;;;11.10;99.40;;;;;;5058461;28;20063;-66
2021/10/09 02:08:28;;;;;;;124.65;21.77;;;11.10;99.30;;;;;;5081340;28;20247;-66
2021/10/09 02:11:04;;;;;;;147.07;23.05;;;11.00;99.50;;;;;;5067456;28;20055;-66
2021/10/09 02:27:30;;;;;;;163.77;24.42;;;11.00;99.40;;;;;;5045332;28;20043;-67
2021/10/09 02:29:57;;;;;;;213.98;24.75;;;11.00;99.30;;;;;;5085636;28;20067;-67
2021/10/09 02:32:24;;;;;;;155.55;23.42;;;11.00;99.30;;;;;;5089205;28;20044;-67
2021/10/09 02:34:51;;;;;;;142.38;20.10;;;11.10;99.40;;;;;;5058997;28;20048;-67
2021/10/09 02:37:18;;;;;;;165.98;23.38;;;11.00;99.40;;;;;;5077457;28;20168;-66
2021/10/09 02:39:45;;;;;;;141.68;21.00;;;11.10;99.40;;;;;;5080926;28;20090;-67
2021/10/09 02:42:12;;;;;;;137.45;21.48;;;11.10;99.50;;;;;;5066945;28;20044;-66
2021/10/09 02:44:39;;;;;;;190.80;24.85;;;11.10;99.30;;;;;;5075782;28;20128;-67
2021/10/09 02:47:06;;;;;;;129.15;21.05;;;11.10;99.40;;;;;;5082777;28;20040;-66
2021/10/09 02:49:33;;;;;;;130.75;21.17;;;11.00;99.20;;;;;;5086918;28;20055;-68
2021/10/09 02:52:00;;;;;;;55.35;18.70;;;11.00;99.00;;;;;;5087105;28;20484;-68
2021/10/09 02:54:27;;;;;;;43.92;15.57;;;11.00;99.60;;;;;;5062342;28;20750;-68
2021/10/09 02:56:54;;;;;;;100.35;19.65;;;11.10;99.60;;;;;;5060781;28;20468;-66
2021/10/09 02:59:21;;;;;;;64.63;17.60;;;11.10;99.10;;;;;;5057602;28;20496;-67
2021/10/09 03:01:48;;;;;;;163.13;24.02;;;11.10;99.40;;;;;;5084105;28;20214;-66
2021/10/09 03:04:15;;;;;;;135.25;21.92;;;11.10;98.80;;;;;;5081269;28;20083;-67
2021/10/09 03:06:42;;;;;;;130.52;23.20;;;11.10;99.10;;;;;;5078679;28;20056;-67
2021/10/09 03:09:09;;;;;;;65.25;19.00;;;11.10;99.20;;;;;;5066985;28;20052;-67
2021/10/09 03:11:36;;;;;;;67.95;19.08;;;11.10;99.30;;;;;;5067289;28;20474;-67
2021/10/09 03:14:03;;;;;;;65.60;17.50;;;11.10;98.90;;;;;;5083005;28;20067;-67
2021/10/09 03:16:30;;;;;;;67.72;17.67;;;11.10;98.80;;;;;;5073242;28;20048;-66
2021/10/09 03:18:57;;;;;;;42.95;15.48;;;11.10;99.00;;;;;;5079356;28;20041;-66
2021/10/09 03:21:24;;;;;;;76.15;15.93;;;11.00;99.00;;;;;;5083291;28;20052;-67
2021/10/09 03:23:50;;;;;;;67.60;15.55;;;11.00;98.80;;;;;;5075853;28;20340;-67
2021/10/09 03:26:17;;;;;;;87.75;18.13;;;11.00;98.90;;;;;;5074135;28;20071;-67
2021/10/09 03:28:45;;;;;;;64.75;15.63;;;11.00;98.90;;;;;;5056322;28;20049;-67
2021/10/09 03:31:12;;;;;;;107.97;22.13;;;11.00;98.90;;;;;;5083960;28;20119;-66
2021/10/09 03:33:40;;;;;;;42.53;15.25;;;11.00;98.90;;;;;;5060369;28;20150;-67
2021/10/09 03:36:07;;;;;;;69.53;17.67;;;11.00;99.20;;;;;;5055271;28;20117;-67
2021/10/09 03:38:36;;;;;;;74.05;17.30;;;11.00;99.00;;;;;;5055150;28;20044;-66
2021/10/09 03:41:08;;;;;;;121.63;18.90;;;11.00;98.90;;;;;;5068989;28;20044;-67
2021/10/09 03:43:35;;;;;;;83.95;19.40;;;10.90;98.70;;;;;;5057006;28;20127;-67
2021/10/09 03:53:35;;;;;;;78.20;18.70;;;10.80;99.10;;;;;;5076961;28;20052;-66
2021/10/09 03:56:02;;;;;;;117.88;21.23;;;10.80;99.20;;;;;;5066165;28;20126;-67
2021/10/09 03:58:29;;;;;;;63.55;16.73;;;10.80;99.10;;;;;;5061585;28;20044;-67
2021/10/09 04:00:56;;;;;;;99.22;19.13;;;10.80;99.10;;;;;;5067169;28;20219;-67
2021/10/09 04:03:24;;;;;;;129.93;21.48;;;10.80;99.00;;;;;;5067226;28;20056;-67
2021/10/09 04:05:51;;;;;;;121.47;21.80;;;10.80;99.10;;;;;;5064502;28;20127;-67
2021/10/09 04:08:18;;;;;;;118.90;20.33;;;10.70;99.20;;;;;;5055757;28;20366;-67
2021/10/09 04:10:45;;;;;;;76.22;19.40;;;10.70;99.20;;;;;;5078797;28;20875;-67
2021/10/09 04:13:12;;;;;;;111.10;20.55;;;10.80;99.50;;;;;;5059350;28;20040;-67
2021/10/09 04:15:39;;;;;;;142.52;28.40;;;10.70;99.00;;;;;;5066774;28;20058;-71
2021/10/09 04:18:06;;;;;;;98.32;30.33;;;10.70;99.20;;;;;;5071468;28;20103;-71
2021/10/09 04:20:33;;;;;;;82.10;17.48;;;10.70;99.00;;;;;;5071377;28;20052;-69
2021/10/09 04:23:00;;;;;;;109.15;17.60;;;10.70;98.90;;;;;;5054922;28;20044;-66
2021/10/09 04:25:28;;;;;;;107.93;16.25;;;10.70;98.80;;;;;;5071008;28;20448;-66
2021/10/09 04:27:54;;;;;;;136.77;20.90;;;10.60;98.90;;;;;;5089534;28;20490;-66
2021/10/09 04:30:21;;;;;;;127.05;19.83;;;10.50;99.20;;;;;;5071546;28;20127;-66
2021/10/09 04:32:48;;;;;;;132.60;19.65;;;10.50;99.50;;;;;;5066923;28;20479;-66
2021/10/09 04:35:16;;;;;;;126.30;18.75;;;10.50;99.10;;;;;;5067017;28;20127;-66
2021/10/09 04:37:43;;;;;;;65.20;14.98;;;10.50;99.10;;;;;;5089384;28;20048;-66
2021/10/09 04:40:11;;;;;;;59.92;13.50;;;10.50;99.20;;;;;;5071944;28;20048;-66
2021/10/09 04:42:38;;;;;;;92.15;14.75;;;10.50;99.10;;;;;;5071530;28;20071;-66
2021/10/09 04:45:06;;;;;;;111.70;17.98;;;10.50;98.90;;;;;;5070432;28;20048;-66
2021/10/09 04:47:33;;;;;;;58.20;13.35;;;10.50;99.20;;;;;;5071014;28;20411;-66
2021/10/09 04:50:00;;;;;;;64.60;14.95;;;10.50;99.30;;;;;;5054797;28;20051;-67
2021/10/09 04:52:27;;;;;;;109.22;16.35;;;10.50;99.20;;;;;;5088786;28;20500;-66
2021/10/09 04:54:55;;;;;;;124.65;16.67;;;10.50;98.60;;;;;;5071512;28;20134;-66
2021/10/09 04:57:22;;;;;;;112.63;15.88;;;10.50;98.80;;;;;;5070907;28;20072;-66
2021/10/09 04:59:50;;;;;;;128.13;18.67;;;10.40;99.00;;;;;;5070886;28;20044;-65
2021/10/09 05:02:17;;;;;;;165.23;19.48;;;10.30;99.40;;;;;;5070981;28;20416;-66
2021/10/09 05:04:44;;;;;;;169.90;22.92;;;10.30;99.40;;;;;;5052681;28;20383;-67
2021/10/09 05:07:12;;;;;;;148.10;20.83;;;10.30;99.50;;;;;;5073331;28;20113;-67
2021/10/09 05:09:39;;;;;;;115.32;19.15;;;10.30;99.40;;;;;;5093722;28;20135;-67
2021/10/09 05:12:07;;;;;;;120.38;16.42;;;10.40;99.30;;;;;;5092580;28;20052;-67
2021/10/09 05:14:35;;;;;;;78.22;15.20;;;10.40;99.20;;;;;;5090965;28;20359;-67
2021/10/09 05:17:02;;;;;;;109.80;17.55;;;10.40;99.70;;;;;;5056899;28;20071;-70
2021/10/09 05:19:29;;;;;;;199.57;108.57;;;10.40;99.40;;;;;;5093301;28;20047;-68
2021/10/09 05:21:56;;;;;;;119.53;27.25;;;10.50;99.60;;;;;;5074572;28;21677;-66
2021/10/09 05:24:23;;;;;;;169.70;24.25;;;10.50;99.10;;;;;;5075544;28;20123;-66
2021/10/09 05:26:50;;;;;;;149.32;21.05;;;10.50;99.20;;;;;;5074853;28;20091;-66
2021/10/09 05:29:19;;;;;;;61.13;15.52;;;10.50;99.40;;;;;;5084238;28;20056;-65
2021/10/09 05:31:48;;;;;;;70.32;17.15;;;10.50;99.30;;;;;;5073410;28;20432;-65
2021/10/09 05:34:15;;;;;;;121.50;18.15;;;10.60;99.50;;;;;;5065728;28;20540;-66
2021/10/09 05:36:42;;;;;;;100.07;17.50;;;10.60;99.60;;;;;;5072737;28;20227;-66
2021/10/09 05:39:09;;;;;;;51.85;15.25;;;10.50;99.20;;;;;;5074375;28;20143;-66
2021/10/09 05:41:36;;;;;;;57.03;14.52;;;10.50;98.60;;;;;;5065222;28;20131;-66
2021/10/09 05:44:03;;;;;;;49.92;14.18;;;10.50;98.30;;;;;;5091733;28;20044;-66
2021/10/09 05:46:33;;;;;;;77.22;16.00;;;10.40;98.30;;;;;;5058345;28;20115;-66
2021/10/09 05:49:00;;;;;;;41.53;13.43;;;10.30;97.90;;;;;;5074289;28;20048;-66
2021/10/09 05:51:39;;;;;;;47.65;13.52;;;10.20;98.30;;;;;;5074026;28;20070;-66
2021/10/09 05:54:12;;;;;;;67.20;14.75;;;10.20;98.40;;;;;;5065396;28;20052;-66
2021/10/09 05:56:55;;;;;;;45.88;12.70;;;10.20;98.60;;;;;;5082188;28;20048;-66
2021/10/09 06:43:51;;;;;;;72.78;15.07;;;10.20;99.10;;;;;;5076753;28;20484;-66
2021/10/09 06:59:49;;;;;;;50.42;12.00;;;10.20;98.80;;;;;;5075798;28;20054;-66
2021/10/09 07:02:16;;;;;;;62.50;13.38;;;10.30;99.20;;;;;;5077764;28;20048;-66
2021/10/09 07:04:43;;;;;;;57.88;11.98;;;10.20;98.80;;;;;;5060791;28;20044;-66
2021/10/09 07:07:16;;;;;;;56.45;12.93;;;10.30;99.00;;;;;;5063831;28;20128;-66
2021/10/09 07:09:44;;;;;;;83.80;15.85;;;10.30;99.10;;;;;;5091219;28;20048;-66
2021/10/09 07:12:11;;;;;;;69.03;13.38;;;10.30;99.10;;;;;;5078493;28;20051;-66
2021/10/09 07:14:38;;;;;;;75.22;14.07;;;10.30;98.90;;;;;;5021488;28;20053;-66
2021/10/09 07:17:05;;;;;;;87.60;16.10;;;10.30;98.70;;;;;;5057201;28;20128;-66
2021/10/09 07:19:32;;;;;;;71.10;13.30;;;10.30;99.10;;;;;;5085174;28;20575;-66
2021/10/09 07:21:59;;;;;;;55.75;17.63;;;10.40;99.10;;;;;;5071298;28;20613;-66
2021/10/09 07:24:46;;;;;;;50.10;19.92;;;10.40;99.40;;;;;;5070924;28;20153;-66
2021/10/09 07:27:13;;;;;;;78.57;19.05;;;10.50;99.20;;;;;;5080226;28;20066;-66
2021/10/09 07:29:40;;;;;;;97.60;16.58;;;10.60;99.20;;;;;;5083480;28;20050;-66
2021/10/09 07:32:07;;;;;;;53.53;15.63;;;10.60;99.10;;;;;;5069489;28;20044;-66
2021/10/09 07:34:34;;;;;;;101.32;18.05;;;10.60;99.00;;;;;;5070523;28;20469;-66
2021/10/09 07:37:01;;;;;;;53.80;13.90;;;10.60;98.90;;;;;;5069568;28;20049;-66
2021/10/09 07:39:27;;;;;;;56.05;15.18;;;10.60;98.80;;;;;;5085562;28;20058;-66
2021/10/09 07:41:54;;;;;;;70.50;16.92;;;10.60;99.10;;;;;;5075421;28;20523;-66
2021/10/09 07:44:22;;;;;;;90.00;15.38;;;10.70;98.90;;;;;;5043513;28;20078;-66
2021/10/09 07:46:50;;;;;;;54.55;15.30;;;10.70;98.50;;;;;;5070193;28;20048;-66
2021/10/09 07:49:17;;;;;;;68.38;16.63;;;10.80;99.30;;;;;;5064653;28;20040;-66
2021/10/09 07:51:44;;;;;;;42.47;15.43;;;10.90;99.00;;;;;;5064280;28;20507;-66
2021/10/09 07:54:12;;;;;;;94.35;18.50;;;11.00;99.00;;;;;;5089916;28;20046;-66
2021/10/09 07:56:39;;;;;;;66.72;16.60;;;10.90;98.30;;;;;;5069531;28;20063;-67
2021/10/09 07:59:06;;;;;;;117.50;18.10;;;10.90;98.40;;;;;;5081420;28;20055;-66
2021/10/09 08:01:33;;;;;;;72.82;17.95;;;10.90;97.70;;;;;;5062482;28;20103;-66
2021/10/09 08:04:00;;;;;;;41.38;16.55;;;10.90;98.40;;;;;;5069429;28;20044;-66
2021/10/09 08:06:27;;;;;;;61.58;18.48;;;11.00;98.80;;;;;;5052587;28;20068;-66
2021/10/09 08:08:54;;;;;;;43.45;16.02;;;11.10;99.20;;;;;;5055284;28;20535;-66
2021/10/09 08:11:21;;;;;;;72.80;18.75;;;11.20;98.30;;;;;;5068493;28;20048;-66
2021/10/09 08:13:48;;;;;;;108.30;21.55;;;11.30;98.70;;;;;;5066283;28;20041;-66
2021/10/09 08:16:15;;;;;;;79.95;19.02;;;11.30;97.70;;;;;;5083442;28;20073;-66
2021/10/09 08:18:42;;;;;;;74.13;18.67;;;11.20;98.00;;;;;;5059000;28;20101;-66
2021/10/09 08:21:09;;;;;;;89.93;27.08;;;11.20;97.60;;;;;;5075343;28;20132;-66
2021/10/09 08:23:55;;;;;;;74.35;23.77;;;11.20;98.20;;;;;;5061637;28;20040;-66
2021/10/09 08:39:43;;;;;;;55.42;20.90;;;11.50;98.60;;;;;;5054377;28;20045;-66
2021/10/09 08:42:10;;;;;;;55.72;19.77;;;11.60;99.20;;;;;;5051608;28;20140;-66
2021/10/09 08:44:38;;;;;;;49.75;19.80;;;11.70;98.30;;;;;;5052310;28;20059;-66
2021/10/09 08:47:08;;;;;;;43.63;20.83;;;11.80;98.20;;;;;;5052295;28;20123;-67
2021/10/09 08:49:35;;;;;;;62.67;19.77;;;11.80;98.40;;;;;;5076178;28;20494;-67
2021/10/09 08:52:03;;;;;;;74.72;22.70;;;11.90;98.00;;;;;;5060428;28;20056;-67
2021/10/09 08:54:37;;;;;;;46.22;22.40;;;12.00;97.90;;;;;;5068622;28;20045;-67
2021/10/09 08:57:16;;;;;;;55.38;21.05;;;12.00;98.40;;;;;;5056639;28;20096;-67
2021/10/09 08:59:57;;;;;;;83.97;22.52;;;12.20;97.50;;;;;;5058918;28;20046;-67
2021/10/09 09:02:38;;;;;;;57.20;22.08;;;12.10;97.10;;;;;;5063052;28;20041;-67
2021/10/09 09:31:49;;;;;;;44.13;26.90;;;12.90;97.70;;;;;;5061696;28;20576;-66
2021/10/09 09:39:18;;;;;;;45.38;25.67;;;13.20;97.40;;;;;;5000827;28;20050;-67
2021/10/09 09:41:46;;;;;;;44.63;28.73;;;13.20;97.30;;;;;;5048317;28;20481;-66
2021/10/09 09:44:16;;;;;;;38.97;24.80;;;13.40;98.20;;;;;;5044690;28;20045;-66
2021/10/09 09:46:51;;;;;;;;;;;13.50;96.00;;;;;;5053793;28;20516;-66
2021/10/09 09:49:18;;;;;;;40.17;25.20;;;13.50;95.80;;;;;;5065299;28;19920;-67
2021/10/09 09:51:45;;;;;;;42.58;28.48;;;13.50;95.90;;;;;;5039736;28;20131;-68
2021/10/09 09:54:12;;;;;;;44.83;28.52;;;13.50;95.40;;;;;;5048867;28;20106;-69
2021/10/09 09:56:39;;;;;;;48.63;29.90;;;13.50;96.20;;;;;;5078264;28;20048;-68
2021/10/09 09:59:06;;;;;;;44.75;29.08;;;13.40;95.90;;;;;;5046924;28;20048;-69
2021/10/09 10:01:33;;;;;;;45.97;28.38;;;13.50;95.70;;;;;;5056751;28;20048;-63
2021/10/09 10:04:01;;;;;;;52.35;34.90;;;13.50;96.10;;;;;;5055549;28;20048;-64
2021/10/09 10:06:28;;;;;;;44.55;31.50;;;13.60;96.00;;;;;;5053477;28;20052;-69
2021/10/09 10:08:56;;;;;;;48.38;30.92;;;13.70;95.60;;;;;;5050949;28;20049;-69
2021/10/09 10:11:23;;;;;;;49.97;31.42;;;13.70;94.90;;;;;;5065836;28;20045;-69
2021/10/09 10:13:53;;;;;;;50.72;33.08;;;13.80;95.50;;;;;;5067653;28;20096;-69
2021/10/09 10:16:20;;;;;;;51.00;32.08;;;13.90;96.20;;;;;;5033787;28;20527;-69
2021/10/09 10:18:49;;;;;;;48.17;29.80;;;14.00;95.40;;;;;;5033354;28;20135;-70
2021/10/09 10:21:32;;;;;;;46.28;30.58;;;14.00;94.40;;;;;;5059975;28;20757;-71
2021/10/09 10:23:59;;;;;;;50.85;33.33;;;14.10;95.80;;;;;;5060839;28;20045;-68
2021/10/09 10:26:33;;;;;;;50.08;33.30;;;14.30;94.90;;;;;;5051537;28;20515;-71
2021/10/09 10:29:02;;;;;;;49.28;33.55;;;14.30;94.80;;;;;;5054534;28;20052;-70
2021/10/09 10:31:30;;;;;;;45.83;31.23;;;14.40;94.50;;;;;;5065615;28;20044;-69
2021/10/09 10:34:19;;;;;;;51.35;33.58;;;14.40;94.90;;;;;;5066848;28;20056;-71
2021/10/09 10:36:46;;;;;;;90.63;68.97;;;14.40;95.00;;;;;;5054559;28;20045;-71
2021/10/09 10:39:17;;;;;;;56.58;37.88;;;14.40;94.70;;;;;;5044667;28;20331;-71
2021/10/09 10:48:03;;;;;;;55.47;36.00;;;14.20;94.60;;;;;;5056075;28;20052;-74
2021/10/09 10:57:03;;;;;;;58.13;35.42;;;14.10;95.50;;;;;;5064022;28;20128;-70
2021/10/09 10:59:46;;;;;;;53.05;34.95;;;14.30;95.50;;;;;;5042255;28;20062;-71
2021/10/09 11:02:14;;;;;;;55.58;35.63;;;14.30;95.70;;;;;;5057395;28;20049;-69
2021/10/09 11:04:43;;;;;;;70.32;45.30;;;14.40;95.40;;;;;;5039305;28;20048;-69
2021/10/09 11:07:11;;;;;;;54.20;36.55;;;14.40;95.40;;;;;;5049417;28;20132;-71
2021/10/09 11:09:39;;;;;;;50.70;34.28;;;14.50;94.90;;;;;;5029811;28;20041;-71
2021/10/09 11:12:19;;;;;;;70.53;51.92;;;14.50;94.70;;;;;;5040071;28;20404;-70
2021/10/09 11:14:46;;;;;;;62.97;43.10;;;14.60;94.70;;;;;;5056675;28;20191;-69
2021/10/09 11:17:13;;;;;;;57.65;38.92;;;14.60;94.60;;;;;;5065501;28;20063;-71
2021/10/09 11:19:45;;;;;;;50.60;36.75;;;14.80;94.20;;;;;;5055788;28;20069;-69
2021/10/09 11:22:12;;;;;;;62.58;38.70;;;14.80;94.00;;;;;;5059962;28;20140;-71
2021/10/09 11:24:41;;;;;;;54.92;38.70;;;15.00;94.40;;;;;;5058018;28;20052;-70
2021/10/09 11:27:08;;;;;;;54.97;38.93;;;15.20;93.80;;;;;;5056897;28;20053;-69
2021/10/09 11:29:35;;;;;;;52.97;35.63;;;15.40;93.30;;;;;;5051725;28;20056;-70
2021/10/09 11:32:06;;;;;;;56.53;38.50;;;15.50;92.40;;;;;;5055521;28;20544;-68
2021/10/09 11:34:53;;;;;;;50.60;35.03;;;15.60;92.60;;;;;;5063940;28;20048;-70
2021/10/09 11:37:20;;;;;;;51.20;36.65;;;15.70;92.00;;;;;;5054429;28;20576;-69
2021/10/09 11:39:52;;;;;;;49.92;35.38;;;15.80;92.60;;;;;;5053650;28;20158;-69
2021/10/09 11:42:22;;;;;;;47.58;36.00;;;16.00;91.40;;;;;;5035976;28;20132;-69
2021/10/09 11:45:24;;;;;;;47.50;35.28;;;16.10;91.10;;;;;;5060094;28;20124;-69
2021/10/09 11:53:48;;;;;;;39.15;29.77;;;16.10;89.90;;;;;;5031478;28;20051;-69
2021/10/09 11:56:15;;;;;;;39.42;30.58;;;16.10;90.30;;;;;;5037341;28;20092;-69
2021/10/09 11:58:54;;;;;;;37.30;30.40;;;16.10;89.90;;;;;;5051464;28;20461;-69
2021/10/09 12:01:28;;;;;;;43.17;32.17;;;16.10;89.60;;;;;;5046677;28;20117;-69
2021/10/09 12:03:55;;;;;;;36.83;30.58;;;16.10;89.60;;;;;;5044387;28;20099;-69
2021/10/09 12:06:39;;;;;;;;;;;16.10;90.00;;;;;;5054038;28;20503;-69
2021/10/09 12:09:07;;;;;;;34.20;28.25;;;16.20;89.00;;;;;;5048411;28;20364;-69
2021/10/09 12:11:34;;;;;;;39.92;30.65;;;16.30;90.10;;;;;;5053961;28;20045;-69
2021/10/09 12:14:09;;;;;;;32.75;28.30;;;16.30;89.30;;;;;;5053134;28;20105;-69
2021/10/09 12:16:48;;;;;;;40.15;29.20;;;16.40;90.10;;;;;;5046792;28;20134;-69
2021/10/09 12:19:29;;;;;;;76.40;58.42;;;16.50;88.80;;;;;;5031451;28;20144;-71
2021/10/09 12:22:10;;;;;;;44.42;34.13;;;16.60;89.10;;;;;;5074751;28;20147;-69
2021/10/09 12:24:48;;;;;;;39.22;32.10;;;16.50;89.90;;;;;;5066482;28;20074;-66
2021/10/09 12:27:22;;;;;;;50.60;39.90;;;16.50;88.10;;;;;;5048720;28;20106;-68
2021/10/09 12:30:03;;;;;;;41.03;31.15;;;16.50;89.20;;;;;;5060435;28;20062;-66
2021/10/09 12:32:39;;;;;;;38.00;30.63;;;16.60;87.90;;;;;;5045356;28;20048;-67
2021/10/09 12:35:07;;;;;;;34.40;28.35;;;16.70;88.90;;;;;;5031999;28;20049;-65
2021/10/09 12:37:35;;;;;;;29.15;25.83;;;16.70;86.40;;;;;;5049826;28;20079;-65
2021/10/09 12:40:41;;;;;;;29.98;26.52;;;16.70;85.50;;;;;;5050206;28;20057;-63
2021/10/09 12:43:12;;;;;;;35.78;26.20;;;16.70;85.40;;;;;;5050197;28;20065;-61
2021/10/09 12:45:40;;;;;;;32.83;26.20;;;16.60;86.20;;;;;;5048781;28;20079;-63
2021/10/09 12:48:07;;;;;;;31.95;27.23;;;16.60;84.80;;;;;;5049338;28;20503;-63
2021/10/09 12:50:36;;;;;;;31.08;27.30;;;16.60;86.10;;;;;;5048987;28;20148;-63
2021/10/09 12:53:03;;;;;;;;;;;16.60;86.50;;;;;;5033149;28;20212;-63
2021/10/09 12:55:33;;;;;;;38.60;29.25;;;16.70;85.00;;;;;;5050884;28;19928;-63
2021/10/09 12:58:04;;;;;;;41.83;32.53;;;16.60;86.30;;;;;;5050201;28;20056;-69
2021/10/09 13:00:32;;;;;;;40.58;32.45;;;16.60;86.50;;;;;;5048170;28;20053;-67
2021/10/09 13:02:59;;;;;;;35.40;28.77;;;16.60;87.90;;;;;;5051603;28;20041;-66
2021/10/09 13:05:28;;;;;;;33.65;29.10;;;16.60;87.10;;;;;;5049487;28;20128;-66
2021/10/09 13:07:57;;;;;;;34.03;28.00;;;16.70;87.10;;;;;;5050217;28;20562;-67
2021/10/09 13:10:24;;;;;;;40.95;32.35;;;16.70;85.70;;;;;;5050906;28;20285;-68
2021/10/09 13:12:51;;;;;;;44.60;33.40;;;16.70;85.40;;;;;;5046244;28;20053;-67
2021/10/09 13:15:19;;;;;;;35.95;28.23;;;16.70;84.50;;;;;;5050945;28;20058;-67
2021/10/09 13:17:47;;;;;;;33.45;27.52;;;16.70;85.20;;;;;;5073705;28;20064;-67
2021/10/09 13:20:14;;;;;;;31.48;25.77;;;16.70;85.60;;;;;;5059517;28;20139;-67
2021/10/09 13:22:41;;;;;;;32.05;27.50;;;16.60;84.90;;;;;;5057156;28;20052;-69
2021/10/09 13:25:27;;;;;;;33.25;26.95;;;16.70;85.30;;;;;;5079921;28;20048;-67
2021/10/09 13:27:54;;;;;;;35.30;25.08;;;16.70;85.00;;;;;;5076138;28;20392;-67
2021/10/09 13:30:21;;;;;;;29.70;25.35;;;16.70;84.30;;;;;;5075845;28;20086;-67
2021/10/09 13:32:48;;;;;;;31.90;27.67;;;16.70;83.80;;;;;;5060998;28;20132;-67
2021/10/09 13:35:18;;;;;;;33.90;26.38;;;16.80;84.40;;;;;;5059250;28;20052;-67
2021/10/09 13:37:50;;;;;;;32.92;25.73;;;16.80;85.00;;;;;;5068688;28;20130;-68
2021/10/09 13:40:17;;;;;;;29.90;24.90;;;16.90;84.20;;;;;;5075528;28;20044;-68
2021/10/09 13:42:44;;;;;;;25.90;20.95;;;17.00;84.30;;;;;;5069033;28;20435;-66
2021/10/09 13:45:11;;;;;;;35.53;20.98;;;17.20;83.60;;;;;;5073074;28;20083;-70
2021/10/09 13:47:39;;;;;;;24.98;20.00;;;17.20;82.70;;;;;;5057665;28;20080;-68
2021/10/09 13:50:06;;;;;;;21.10;18.58;;;17.20;83.90;;;;;;5066539;28;20349;-68
2021/10/09 13:52:33;;;;;;;36.15;32.30;;;17.30;81.90;;;;;;5085418;28;20123;-74
2021/10/09 13:55:00;;;;;;;21.27;17.42;;;17.30;80.60;;;;;;5049033;28;20148;-66
2021/10/09 13:57:27;;;;;;;22.95;19.10;;;17.30;79.20;;;;;;5051287;28;20071;-69
2021/10/09 13:59:58;;;;;;;25.73;19.10;;;17.30;80.90;;;;;;5040194;28;20045;-69
2021/10/09 14:02:25;;;;;;;24.48;19.80;;;17.40;81.60;;;;;;5072705;28;20124;-69
2021/10/09 14:04:54;;;;;;;21.13;18.15;;;17.50;81.30;;;;;;5055216;28;20557;-79
2021/10/09 14:07:21;;;;;;;21.15;17.77;;;17.50;79.30;;;;;;5038900;28;20172;-69
2021/10/09 14:09:48;;;;;;;23.48;18.88;;;17.40;79.80;;;;;;5054718;28;20052;-69
2021/10/09 14:12:15;;;;;;;22.45;18.58;;;17.30;80.20;;;;;;5055264;28;20044;-67
2021/10/09 14:14:42;;;;;;;27.15;22.63;;;17.30;80.20;;;;;;5038118;28;20040;-67
2021/10/09 14:17:09;;;;;;;23.45;20.33;;;17.20;80.50;;;;;;5072326;28;20060;-67
2021/10/09 14:19:56;;;;;;;22.55;17.90;;;17.20;81.40;;;;;;5069724;28;20106;-68
2021/10/09 14:22:23;;;;;;;22.00;17.20;;;17.20;82.20;;;;;;5053817;28;20500;-68
2021/10/09 14:24:50;;;;;;;22.83;17.30;;;17.20;80.40;;;;;;5042561;28;20092;-67
2021/10/09 14:27:17;;;;;;;22.13;17.02;;;17.20;79.10;;;;;;5074085;28;20044;-67
2021/10/09 14:29:44;;;;;;;19.73;15.00;;;17.20;78.00;;;;;;5072031;28;20424;-67
2021/10/09 14:32:11;;;;;;;17.75;15.52;;;17.20;76.90;;;;;;5063280;28;20085;-67
2021/10/09 14:34:38;;;;;;;21.27;18.02;;;17.20;78.00;;;;;;5074295;28;20071;-67
2021/10/09 14:37:05;;;;;;;24.98;19.30;;;17.10;79.80;;;;;;5091576;28;20073;-67
2021/10/09 14:39:32;;;;;;;21.98;18.45;;;17.00;79.90;;;;;;5054643;28;20041;-67
2021/10/09 14:42:03;;;;;;;23.95;19.50;;;16.90;79.40;;;;;;5069344;28;20044;-67
2021/10/09 14:44:31;;;;;;;20.92;16.80;;;16.90;80.80;;;;;;5060813;28;20055;-68
2021/10/09 14:52:22;;;;;;;23.65;18.88;;;16.90;80.60;;;;;;5079659;28;20462;-70
2021/10/09 15:19:41;;;;;;;18.65;16.70;;;17.00;80.40;;;;;;5089275;28;20127;-70
2021/10/09 15:22:08;;;;;;;19.88;16.55;;;17.10;80.60;;;;;;5071013;28;20193;-70
2021/10/09 15:24:35;;;;;;;21.60;17.30;;;17.10;81.00;;;;;;5049022;28;20504;-70
2021/10/09 15:27:03;;;;;;;18.52;16.10;;;17.20;79.20;;;;;;5053543;28;20094;-70